createdAt,value
2019-05-11T00:01:38.549Z,12.30
2019-05-11T00:04:05.920Z,12.30
2019-05-11T00:06:33.105Z,12.30
2019-05-11T00:09:00.206Z,12.40
2019-05-11T00:11:27.325Z,12.40
2019-05-11T00:13:54.604Z,12.50
2019-05-11T00:16:22.090Z,12.50
2019-05-11T00:18:49.526Z,12.60
2019-05-11T00:21:17.017Z,12.60
2019-05-11T00:23:44.220Z,12.60
2019-05-11T00:26:13.555Z,12.60
2019-05-11T00:28:41.011Z,12.50
2019-05-11T00:31:09.441Z,12.50
2019-05-11T00:33:36.440Z,12.60
2019-05-11T00:36:03.314Z,12.60
2019-05-11T00:38:30.367Z,12.50
2019-05-11T00:40:57.949Z,12.60
2019-05-11T00:43:25.159Z,12.60
2019-05-11T00:45:52.733Z,12.60
2019-05-11T00:48:20.476Z,12.50
2019-05-11T00:50:47.710Z,12.50
2019-05-11T00:53:14.881Z,12.50
2019-05-11T00:55:42.165Z,12.30
2019-05-11T00:58:09.553Z,12.20
2019-05-11T01:00:36.992Z,12.30
2019-05-11T01:03:04.236Z,12.20
2019-05-11T01:05:31.495Z,12.20
2019-05-11T01:07:58.668Z,12.20
2019-05-11T01:10:41.105Z,12.20
2019-05-11T01:12:55.084Z,12.10
2019-05-11T01:15:22.416Z,12.20
2019-05-11T01:17:50.007Z,12.20
2019-05-11T01:20:18.740Z,12.20
2019-05-11T01:22:46.313Z,12.20
2019-05-11T01:25:13.554Z,12.20
2019-05-11T01:27:41.004Z,12.20
2019-05-11T01:30:08.582Z,12.20
2019-05-11T01:32:36.048Z,12.20
2019-05-11T01:35:03.966Z,12.20
2019-05-11T01:37:34.216Z,12.10
2019-05-11T01:40:01.578Z,12.00
2019-05-11T01:42:28.974Z,12.00
2019-05-11T01:44:56.078Z,11.90
2019-05-11T01:47:24.023Z,11.90
2019-05-11T01:49:51.183Z,11.90
2019-05-11T01:52:18.376Z,11.90
2019-05-11T01:54:45.903Z,11.90
2019-05-11T01:57:14.149Z,11.90
2019-05-11T01:59:41.966Z,11.90
2019-05-11T02:02:08.882Z,12.00
2019-05-11T02:04:35.887Z,12.00
2019-05-11T02:07:03.267Z,12.00
2019-05-11T02:09:30.583Z,12.10
2019-05-11T02:11:57.911Z,12.10
2019-05-11T02:14:25.432Z,12.10
2019-05-11T02:16:56.188Z,12.00
2019-05-11T02:19:23.570Z,12.00
2019-05-11T02:21:50.724Z,12.00
2019-05-11T02:24:17.925Z,11.90
2019-05-11T02:26:45.178Z,11.90
2019-05-11T02:29:12.378Z,11.80
2019-05-11T02:31:40.115Z,11.70
2019-05-11T02:34:07.122Z,11.70
2019-05-11T02:36:35.230Z,11.80
2019-05-11T02:39:05.181Z,11.80
2019-05-11T02:41:36.891Z,11.80
2019-05-11T02:44:01.813Z,11.80
2019-05-11T02:46:29.471Z,11.80
2019-05-11T02:48:56.978Z,11.70
2019-05-11T02:51:24.352Z,11.70
2019-05-11T02:53:52.537Z,11.80
2019-05-11T02:56:19.866Z,11.80
2019-05-11T02:58:47.209Z,11.80
2019-05-11T03:01:14.474Z,11.70
2019-05-11T03:03:41.421Z,11.60
2019-05-11T03:06:09.275Z,11.60
2019-05-11T03:08:36.559Z,11.60
2019-05-11T03:11:03.835Z,11.50
2019-05-11T03:13:30.996Z,11.50
2019-05-11T03:15:58.160Z,11.50
2019-05-11T03:18:25.549Z,11.50
2019-05-11T03:20:52.558Z,11.50
2019-05-11T03:23:19.826Z,11.50
2019-05-11T03:25:47.011Z,11.50
2019-05-11T03:28:14.291Z,11.50
2019-05-11T03:30:41.612Z,11.30
2019-05-11T03:33:08.715Z,11.20
2019-05-11T03:35:35.751Z,11.10
2019-05-11T03:38:02.961Z,11.00
2019-05-11T03:40:30.323Z,11.00
2019-05-11T03:42:57.614Z,10.90
2019-05-11T03:45:24.873Z,10.90
2019-05-11T03:47:52.069Z,10.80
2019-05-11T03:50:19.221Z,10.80
2019-05-11T03:52:46.208Z,10.80
2019-05-11T03:55:13.613Z,10.80
2019-05-11T03:57:44.091Z,10.80
2019-05-11T04:00:11.504Z,11.00
2019-05-11T04:02:38.856Z,11.00
2019-05-11T04:05:06.340Z,11.10
2019-05-11T04:07:33.315Z,11.20
2019-05-11T04:10:00.537Z,11.20
2019-05-11T04:12:34.525Z,11.20
2019-05-11T04:14:57.134Z,11.20
2019-05-11T04:17:24.569Z,11.20
2019-05-11T04:19:52.010Z,11.20
2019-05-11T04:22:20.136Z,11.30
2019-05-11T04:24:47.432Z,11.20
2019-05-11T04:27:19.322Z,11.10
2019-05-11T04:29:44.260Z,11.10
2019-05-11T04:32:11.659Z,11.10
2019-05-11T04:34:38.945Z,11.10
2019-05-11T04:37:05.937Z,11.10
2019-05-11T04:39:33.201Z,11.10
2019-05-11T04:42:00.505Z,11.10
2019-05-11T04:44:27.903Z,11.10
2019-05-11T04:46:55.392Z,11.10
2019-05-11T04:49:22.528Z,11.30
2019-05-11T04:51:50.084Z,11.30
2019-05-11T04:54:17.335Z,11.30
2019-05-11T04:56:45.745Z,11.40
2019-05-11T04:59:13.256Z,11.40
2019-05-11T05:01:41.275Z,11.40
2019-05-11T05:04:13.658Z,11.50
2019-05-11T05:06:39.007Z,11.50
2019-05-11T05:09:06.346Z,11.50
2019-05-11T05:11:36.959Z,11.40
2019-05-11T05:14:08.119Z,11.40
2019-05-11T05:16:32.870Z,11.30
2019-05-11T05:18:59.760Z,11.30
2019-05-11T05:21:27.221Z,11.40
2019-05-11T05:23:54.494Z,11.40
2019-05-11T05:26:28.025Z,11.30
2019-05-11T05:28:55.132Z,11.20
2019-05-11T05:31:22.290Z,11.20
2019-05-11T05:33:49.519Z,11.20
2019-05-11T05:36:16.724Z,11.10
2019-05-11T05:38:43.793Z,11.10
2019-05-11T05:41:11.040Z,11.10
2019-05-11T05:43:38.535Z,11.20
2019-05-11T05:48:32.644Z,11.30
2019-05-11T05:50:59.955Z,11.40
2019-05-11T05:53:27.092Z,11.50
2019-05-11T05:55:54.526Z,11.50
2019-05-11T05:58:21.660Z,11.60
2019-05-11T06:00:48.814Z,11.70
2019-05-11T06:03:19.170Z,11.70
2019-05-11T06:05:46.419Z,11.70
2019-05-11T06:08:13.635Z,11.70
2019-05-11T06:10:41.116Z,11.70
2019-05-11T06:13:11.588Z,11.60
2019-05-11T06:15:38.625Z,11.60
2019-05-11T06:18:11.949Z,11.50
2019-05-11T06:20:39.108Z,11.60
2019-05-11T06:23:06.237Z,11.70
2019-05-11T06:25:33.486Z,11.80
2019-05-11T06:28:00.479Z,11.90
2019-05-11T06:30:28.361Z,12.10
2019-05-11T06:32:55.271Z,12.30
2019-05-11T06:35:22.828Z,12.40
2019-05-11T06:37:50.160Z,12.40
2019-05-11T06:40:19.381Z,12.60
2019-05-11T06:42:48.014Z,12.70
2019-05-11T06:45:15.291Z,12.90
2019-05-11T06:47:42.581Z,13.00
2019-05-11T06:50:10.119Z,13.20
2019-05-11T06:52:37.245Z,13.40
2019-05-11T06:55:04.775Z,13.50
2019-05-11T06:57:32.251Z,13.50
2019-05-11T07:00:00.551Z,13.40
2019-05-11T07:02:27.922Z,13.40
2019-05-11T07:04:54.880Z,13.50
2019-05-11T07:07:22.088Z,13.50
2019-05-11T07:09:49.260Z,13.60
2019-05-11T07:12:16.624Z,13.60
2019-05-11T07:14:44.824Z,13.80
2019-05-11T07:17:11.970Z,14.00
2019-05-11T07:19:38.865Z,14.10
2019-05-11T07:22:05.907Z,14.20
2019-05-11T07:24:33.684Z,14.10
2019-05-11T07:27:01.174Z,14.20
2019-05-11T07:29:28.235Z,14.10
2019-05-11T07:31:57.894Z,14.10
2019-05-11T07:34:24.895Z,14.00
2019-05-11T07:36:52.302Z,14.00
2019-05-11T07:39:19.352Z,14.00
2019-05-11T07:41:48.058Z,14.10
2019-05-11T07:44:15.705Z,14.10
2019-05-11T07:46:48.266Z,14.10
2019-05-11T07:49:17.821Z,14.10
2019-05-11T07:51:44.511Z,14.00
2019-05-11T07:54:11.998Z,14.10
2019-05-11T07:56:39.620Z,14.10
2019-05-11T07:59:07.975Z,14.10
2019-05-11T08:01:35.533Z,14.10
2019-05-11T08:04:02.898Z,13.90
2019-05-11T08:06:30.282Z,13.90
2019-05-11T08:08:58.867Z,13.80
2019-05-11T08:11:30.721Z,13.70
2019-05-11T08:13:58.246Z,13.80
2019-05-11T08:16:28.498Z,13.90
2019-05-11T08:18:55.169Z,14.00
2019-05-11T08:21:25.673Z,14.20
2019-05-11T08:23:52.972Z,14.50
2019-05-11T08:26:23.285Z,14.70
2019-05-11T08:28:50.419Z,14.80
2019-05-11T08:31:18.699Z,14.80
2019-05-11T08:33:48.018Z,14.60
2019-05-11T08:36:15.422Z,14.40
2019-05-11T08:38:42.754Z,14.50
2019-05-11T08:41:10.350Z,14.60
2019-05-11T08:43:38.838Z,14.60
2019-05-11T08:46:07.935Z,14.70
2019-05-11T08:48:35.930Z,14.90
2019-05-11T08:51:03.288Z,15.00
2019-05-11T08:53:31.425Z,15.00
2019-05-11T08:55:58.927Z,15.00
2019-05-11T08:58:27.804Z,14.90
2019-05-11T09:00:55.420Z,14.90
2019-05-11T09:03:22.662Z,14.90
2019-05-11T09:05:49.508Z,15.00
2019-05-11T09:08:18.782Z,15.10
2019-05-11T09:10:46.218Z,15.20
2019-05-11T09:13:14.344Z,15.00
2019-05-11T09:15:41.757Z,14.80
2019-05-11T09:18:08.776Z,14.70
2019-05-11T09:20:37.860Z,14.60
2019-05-11T09:23:05.510Z,14.60
2019-05-11T09:25:32.684Z,14.50
2019-05-11T09:28:00.088Z,14.40
2019-05-11T09:30:28.788Z,14.30
2019-05-11T09:32:58.078Z,14.40
2019-05-11T09:35:25.193Z,14.70
2019-05-11T09:37:52.488Z,14.90
2019-05-11T09:40:19.676Z,15.10
2019-05-11T09:42:50.080Z,15.30
2019-05-11T09:45:18.619Z,15.40
2019-05-11T09:47:47.703Z,15.50
2019-05-11T09:50:17.271Z,15.50
2019-05-11T09:52:44.446Z,15.80
2019-05-11T09:55:11.429Z,15.90
2019-05-11T09:57:38.838Z,15.80
2019-05-11T10:00:08.500Z,15.80
2019-05-11T10:02:38.330Z,15.70
2019-05-11T10:05:05.137Z,15.50
2019-05-11T10:07:32.603Z,15.40
2019-05-11T10:10:00.409Z,15.30
2019-05-11T10:12:28.636Z,15.10
2019-05-11T10:14:55.982Z,15.10
2019-05-11T10:17:23.160Z,15.50
2019-05-11T10:19:50.856Z,16.00
2019-05-11T10:22:18.567Z,16.00
2019-05-11T10:24:47.697Z,16.00
2019-05-11T10:27:15.020Z,15.90
2019-05-11T10:29:42.244Z,15.90
2019-05-11T10:32:09.866Z,16.00
2019-05-11T10:34:38.604Z,16.10
2019-05-11T10:37:08.365Z,16.00
2019-05-11T10:39:35.626Z,15.80
2019-05-11T10:42:03.342Z,15.60
2019-05-11T10:44:30.734Z,15.30
2019-05-11T10:46:58.880Z,15.00
2019-05-11T10:49:28.629Z,14.90
2019-05-11T10:51:55.083Z,14.90
2019-05-11T10:54:22.078Z,15.30
2019-05-11T10:56:49.409Z,15.80
2019-05-11T10:59:20.092Z,16.40
2019-05-11T11:01:48.575Z,16.80
2019-05-11T11:04:18.171Z,17.30
2019-05-11T11:06:45.002Z,17.50
2019-05-11T11:09:12.209Z,18.00
2019-05-11T11:11:39.166Z,18.60
2019-05-11T11:14:08.724Z,19.10
2019-05-11T11:16:40.385Z,19.30
2019-05-11T11:19:07.533Z,18.90
2019-05-11T11:21:34.557Z,18.40
2019-05-11T11:24:02.600Z,18.20
2019-05-11T11:26:30.143Z,18.20
2019-05-11T11:28:58.121Z,18.10
2019-05-11T11:31:25.640Z,17.80
2019-05-11T11:33:55.535Z,17.50
2019-05-11T11:36:22.226Z,17.20
2019-05-11T11:38:49.545Z,17.10
2019-05-11T11:41:18.665Z,16.80
2019-05-11T11:43:48.102Z,16.70
2019-05-11T11:46:18.767Z,16.70
2019-05-11T11:48:48.557Z,16.40
2019-05-11T11:51:15.708Z,16.10
2019-05-11T11:53:42.991Z,15.70
2019-05-11T11:56:10.390Z,15.60
2019-05-11T11:58:38.168Z,15.40
2019-05-11T12:01:08.189Z,15.20
2019-05-11T12:03:35.043Z,15.00
2019-05-11T12:06:02.779Z,14.90
2019-05-11T12:08:29.806Z,14.90
2019-05-11T12:10:58.929Z,14.80
2019-05-11T12:13:29.095Z,14.90
2019-05-11T12:15:55.473Z,15.30
2019-05-11T12:18:28.526Z,15.60
2019-05-11T12:20:55.702Z,15.80
2019-05-11T12:23:22.780Z,15.80
2019-05-11T12:25:50.432Z,15.70
2019-05-11T12:28:18.552Z,15.70
2019-05-11T12:30:47.560Z,15.60
2019-05-11T12:33:14.532Z,15.50
2019-05-11T12:35:41.708Z,15.40
2019-05-11T12:38:09.688Z,15.50
2019-05-11T12:40:38.824Z,15.50
2019-05-11T12:43:08.137Z,15.40
2019-05-11T12:45:37.526Z,15.20
2019-05-11T12:48:05.054Z,15.00
2019-05-11T12:50:32.588Z,15.00
2019-05-11T12:52:59.810Z,14.90
2019-05-11T12:55:28.686Z,15.00
2019-05-11T12:57:58.022Z,15.20
2019-05-11T13:00:30.428Z,15.40
2019-05-11T13:02:54.728Z,15.30
2019-05-11T13:05:21.925Z,15.40
2019-05-11T13:07:49.336Z,15.70
2019-05-11T13:10:17.760Z,15.90
2019-05-11T13:12:46.411Z,15.80
2019-05-11T13:15:13.788Z,15.50
2019-05-11T13:17:41.289Z,15.70
2019-05-11T13:20:12.667Z,16.00
2019-05-11T13:22:39.373Z,16.40
2019-05-11T13:25:08.603Z,16.80
2019-05-11T13:27:35.727Z,17.10
2019-05-11T13:30:03.395Z,17.50
2019-05-11T13:32:30.655Z,17.50
2019-05-11T13:34:58.372Z,17.20
2019-05-11T13:37:28.134Z,17.10
2019-05-11T13:39:54.735Z,17.30
2019-05-11T13:42:23.314Z,17.90
2019-05-11T13:44:50.954Z,19.10
2019-05-11T13:47:18.446Z,19.50
2019-05-11T13:49:47.901Z,19.80
2019-05-11T13:52:14.796Z,19.90
2019-05-11T13:54:41.992Z,19.50
2019-05-11T13:57:09.296Z,19.20
2019-05-11T13:59:38.456Z,18.90
2019-05-11T14:02:10.193Z,18.90
2019-05-11T14:04:35.451Z,18.80
2019-05-11T14:07:02.834Z,18.90
2019-05-11T14:09:30.285Z,19.00
2019-05-11T14:11:58.361Z,19.30
2019-05-11T14:14:28.527Z,19.30
2019-05-11T14:16:55.800Z,19.50
2019-05-11T14:19:22.971Z,19.90
2019-05-11T14:21:50.841Z,20.10
2019-05-11T14:24:18.496Z,20.60
2019-05-11T14:26:48.636Z,21.10
2019-05-11T14:29:17.292Z,21.20
2019-05-11T14:31:44.471Z,20.60
2019-05-11T14:34:11.643Z,19.80
2019-05-11T14:36:39.184Z,19.30
2019-05-11T14:39:08.419Z,18.90
2019-05-11T14:41:37.986Z,18.50
2019-05-11T14:44:04.857Z,18.50
2019-05-11T14:46:32.196Z,18.20
2019-05-11T14:48:59.378Z,17.80
2019-05-11T14:51:28.274Z,17.60
2019-05-11T14:53:58.912Z,17.50
2019-05-11T14:56:24.965Z,17.50
2019-05-11T14:58:52.365Z,17.20
2019-05-11T15:01:19.668Z,16.90
2019-05-11T15:03:48.688Z,16.60
2019-05-11T15:06:15.877Z,16.00
2019-05-11T15:08:43.967Z,15.70
2019-05-11T15:11:11.380Z,15.30
2019-05-11T15:13:38.579Z,15.10
2019-05-11T15:16:08.143Z,15.00
2019-05-11T15:18:41.319Z,14.90
2019-05-11T15:21:04.889Z,14.70
2019-05-11T15:23:32.920Z,14.50
2019-05-11T15:26:00.407Z,14.40
2019-05-11T15:28:28.481Z,14.50
2019-05-11T15:30:55.785Z,14.60
2019-05-11T15:33:22.752Z,14.50
2019-05-11T15:35:50.115Z,14.50
2019-05-11T15:38:17.916Z,14.40
2019-05-11T15:40:45.276Z,14.30
2019-05-11T15:43:12.566Z,14.20
2019-05-11T15:45:39.947Z,14.10
2019-05-11T15:48:08.495Z,13.80
2019-05-11T15:50:39.796Z,13.60
2019-05-11T15:53:05.434Z,13.40
2019-05-11T15:55:32.496Z,13.20
2019-05-11T15:57:59.879Z,13.10
2019-05-11T16:00:27.464Z,13.20
2019-05-11T16:02:54.723Z,13.20
2019-05-11T16:05:21.799Z,13.10
2019-05-11T16:07:49.355Z,13.10
2019-05-11T16:10:18.726Z,13.10
2019-05-11T16:12:48.664Z,13.00
2019-05-11T16:15:18.876Z,13.00
2019-05-11T16:17:45.654Z,12.90
2019-05-11T16:20:12.629Z,12.80
2019-05-11T16:22:39.838Z,12.70
2019-05-11T16:25:10.448Z,12.60
2019-05-11T16:27:38.158Z,12.40
2019-05-11T16:30:06.332Z,12.30
2019-05-11T16:32:33.649Z,12.20
2019-05-11T16:35:01.003Z,12.10
2019-05-11T16:37:28.831Z,11.90
2019-05-11T16:39:58.263Z,11.90
2019-05-11T16:42:27.623Z,11.80
2019-05-11T16:44:54.396Z,11.80
2019-05-11T16:47:21.506Z,11.80
2019-05-11T16:49:49.668Z,11.80
2019-05-11T16:52:18.361Z,11.70
2019-05-11T16:54:47.716Z,11.70
2019-05-11T16:57:14.684Z,11.70
2019-05-11T16:59:41.911Z,11.70
2019-05-11T17:02:12.255Z,11.70
2019-05-11T17:04:39.891Z,11.60
2019-05-11T17:07:06.937Z,11.60
2019-05-11T17:09:37.671Z,11.60
2019-05-11T17:12:04.918Z,11.50
2019-05-11T17:14:32.531Z,11.50
2019-05-11T17:16:59.876Z,11.40
2019-05-11T17:19:42.204Z,11.40
2019-05-11T17:21:56.224Z,11.40
2019-05-11T17:24:23.260Z,11.40
2019-05-11T17:26:50.508Z,11.40
2019-05-11T17:29:18.914Z,11.40
2019-05-11T17:31:45.911Z,11.40
2019-05-11T17:34:13.040Z,11.40
2019-05-11T17:36:40.200Z,11.30
2019-05-11T17:39:07.718Z,11.20
2019-05-11T17:41:38.971Z,11.30
2019-05-11T17:44:08.077Z,11.30
2019-05-11T17:46:35.563Z,11.20
2019-05-11T17:49:03.044Z,11.20
2019-05-11T17:51:30.469Z,11.20
2019-05-11T17:53:59.722Z,11.20
2019-05-11T17:56:27.983Z,11.20
2019-05-11T17:58:58.916Z,11.20
2019-05-11T18:01:27.737Z,11.10
2019-05-11T18:03:55.492Z,11.10
2019-05-11T18:06:22.636Z,11.10
2019-05-11T18:08:49.663Z,11.10
2019-05-11T18:11:18.551Z,11.00
2019-05-11T18:13:48.098Z,11.00
2019-05-11T18:16:15.216Z,10.90
2019-05-11T18:18:42.570Z,10.80
2019-05-11T18:21:10.110Z,10.70
2019-05-11T18:23:38.741Z,10.70
2019-05-11T18:26:09.033Z,10.60
2019-05-11T18:28:37.847Z,10.60
2019-05-11T18:31:05.597Z,10.50
2019-05-11T18:33:32.663Z,10.60
2019-05-11T18:36:00.160Z,10.60
2019-05-11T18:38:27.784Z,10.60
2019-05-11T18:40:57.947Z,10.60
2019-05-11T18:43:25.132Z,10.60
2019-05-11T18:45:52.549Z,10.60
2019-05-11T18:48:19.916Z,10.60
2019-05-11T18:50:49.140Z,10.60
2019-05-11T18:53:18.446Z,10.60
2019-05-11T18:55:45.187Z,10.60
2019-05-11T18:58:12.441Z,10.60
2019-05-11T19:00:40.470Z,10.60
2019-05-11T19:03:08.861Z,10.60
2019-05-11T19:05:38.589Z,10.60
2019-05-11T19:08:05.999Z,10.60
2019-05-11T19:10:33.395Z,10.50
2019-05-11T19:13:00.930Z,10.50
2019-05-11T19:15:28.237Z,10.50
2019-05-11T19:17:57.920Z,10.50
2019-05-11T19:20:24.878Z,10.40
2019-05-11T19:22:51.797Z,10.40
2019-05-11T19:25:18.634Z,10.40
2019-05-11T19:27:50.319Z,10.40
2019-05-11T19:30:14.988Z,10.40
2019-05-11T19:32:42.240Z,10.40
2019-05-11T19:35:09.337Z,10.40
2019-05-11T19:37:38.529Z,10.40
2019-05-11T19:40:09.070Z,10.40
2019-05-11T19:42:49.676Z,10.40
2019-05-11T19:45:18.416Z,10.40
2019-05-11T19:47:48.337Z,10.40
2019-05-11T19:50:15.399Z,10.40
2019-05-11T19:52:42.969Z,10.40
2019-05-11T19:55:10.511Z,10.40
2019-05-11T19:57:38.616Z,10.40
2019-05-11T20:00:07.893Z,10.40
2019-05-11T20:02:35.041Z,10.40
2019-05-11T20:05:02.228Z,10.30
2019-05-11T20:07:31.893Z,10.30
2019-05-11T20:09:58.780Z,10.20
2019-05-11T20:12:25.767Z,10.20
2019-05-11T20:14:52.844Z,10.10
2019-05-11T20:17:20.344Z,10.10
2019-05-11T20:19:49.037Z,10.00
2019-05-11T20:22:16.214Z,9.90
2019-05-11T20:24:43.865Z,9.90
2019-05-11T20:27:10.956Z,9.80
2019-05-11T20:29:38.581Z,9.80
2019-05-11T20:32:08.045Z,9.70
2019-05-11T20:34:38.037Z,9.70
2019-05-11T20:37:07.816Z,9.60
2019-05-11T20:39:37.771Z,9.60
2019-05-11T20:42:04.618Z,9.60
2019-05-11T20:44:32.013Z,9.50
2019-05-11T20:46:59.339Z,9.50
2019-05-11T20:49:28.232Z,9.40
2019-05-11T20:51:57.940Z,9.30
2019-05-11T20:54:24.711Z,9.30
2019-05-11T20:56:52.194Z,9.30
2019-05-11T20:59:19.582Z,9.20
2019-05-11T21:01:47.962Z,9.20
2019-05-11T21:04:15.465Z,9.20
2019-05-11T21:06:42.378Z,9.10
2019-05-11T21:09:09.590Z,9.00
2019-05-11T21:11:36.884Z,9.00
2019-05-11T21:14:04.337Z,8.90
2019-05-11T21:16:31.383Z,8.80
2019-05-11T21:18:58.915Z,8.70
2019-05-11T21:21:27.904Z,8.80
2019-05-11T21:23:57.806Z,8.70
2019-05-11T21:26:24.885Z,8.60
2019-05-11T21:28:52.071Z,8.60
2019-05-11T21:31:19.037Z,8.60
2019-05-11T21:33:46.167Z,8.50
2019-05-11T21:36:13.707Z,8.50
2019-05-11T21:38:41.726Z,8.40
2019-05-11T21:41:09.301Z,8.40
2019-05-11T21:43:37.677Z,8.30
2019-05-11T21:46:07.983Z,8.30
2019-05-11T21:48:34.126Z,8.30
2019-05-11T21:51:01.163Z,8.30
2019-05-11T21:53:28.829Z,8.30
2019-05-11T21:55:55.980Z,8.20
2019-05-11T21:58:23.415Z,8.10
2019-05-11T22:00:50.641Z,8.10
2019-05-11T22:03:19.911Z,8.10
2019-05-11T22:05:48.475Z,8.10
2019-05-11T22:08:17.821Z,8.00
2019-05-11T22:10:45.822Z,8.00
2019-05-11T22:13:12.848Z,8.00
2019-05-11T22:15:40.147Z,7.90
2019-05-11T22:18:08.129Z,7.90
2019-05-11T22:20:38.073Z,7.90
2019-05-11T22:23:04.526Z,7.90
2019-05-11T22:25:31.739Z,7.90
2019-05-11T22:27:59.177Z,7.80
2019-05-11T22:30:27.832Z,7.80
2019-05-11T22:32:54.864Z,7.80
2019-05-11T22:35:21.860Z,7.70
2019-05-11T22:37:49.245Z,7.70
2019-05-11T22:40:16.375Z,7.70
2019-05-11T22:42:44.036Z,7.60
2019-05-11T22:45:11.390Z,7.60
2019-05-11T22:47:39.616Z,7.50
2019-05-11T22:50:07.959Z,7.40
2019-05-11T22:52:36.773Z,7.30
2019-05-11T22:55:04.684Z,7.30
2019-05-11T22:57:31.583Z,7.30
2019-05-11T23:00:01.473Z,7.30
2019-05-11T23:02:28.672Z,7.30
2019-05-11T23:04:57.989Z,7.30
2019-05-11T23:07:25.086Z,7.20
2019-05-11T23:09:52.759Z,7.10
2019-05-11T23:12:19.753Z,7.10
2019-05-11T23:14:49.134Z,7.00
2019-05-11T23:17:18.318Z,7.00
2019-05-11T23:19:45.774Z,7.00
2019-05-11T23:22:13.154Z,7.00
2019-05-11T23:24:40.133Z,6.90
2019-05-11T23:27:08.081Z,6.90
2019-05-11T23:29:35.256Z,6.80
2019-05-11T23:32:02.560Z,6.80
2019-05-11T23:34:29.569Z,6.80
2019-05-11T23:36:59.012Z,6.80
2019-05-11T23:39:28.137Z,6.80
2019-05-11T23:41:55.197Z,6.80
2019-05-11T23:44:22.626Z,6.80
2019-05-11T23:46:49.668Z,6.80
2019-05-11T23:49:18.006Z,6.80
2019-05-11T23:51:45.287Z,6.80
2019-05-11T23:54:12.692Z,6.70
2019-05-11T23:56:39.525Z,6.80
2019-05-11T23:59:08.305Z,6.70
